DLH21X LFMN-EDDF
Flight info
| Callsign | DLH21X |
|---|---|
| Flight time | 1h 25m |
| Altitude | 38000 |
| Route | BASIP DCT ANAKI DCT ABESI DCT LADOL T163 EMPAX EMPAX5C |
| Aircraft | A320/M-SDE2E3FGIJ1LORWXYZ/HB1 |
Departure
| Time | 2026-05-01 11:41 |
|---|---|
| Airport | Nice-Côte d'Azur Airport (LFMN) |
Arrival
| Time | 2026-05-01 13:07 |
|---|---|
| Airport | Frankfurt Main Airport (EDDF) |
| Time | Latitude | Longitude | Altitude | Speed | Heading |
|---|---|---|---|---|---|
| 2026-05-01 11:00 | 43.65993 | 7.20703 | 22 ft | 0 kts | 259° |
| 2026-05-01 11:30 | 43.65994 | 7.20716 | 22 ft | 4 kts | 259° |
| 2026-05-01 11:30 | 43.65999 | 7.20752 | 22 ft | 4 kts | 259° |
| 2026-05-01 11:30 | 43.66005 | 7.20787 | 24 ft | 4 kts | 241° |
| 2026-05-01 11:31 | 43.66021 | 7.20810 | 26 ft | 4 kts | 196° |
| 2026-05-01 11:31 | 43.66039 | 7.20812 | 24 ft | 1 kts | 170° |
| 2026-05-01 11:31 | 43.66042 | 7.20812 | 24 ft | 0 kts | 170° |
| 2026-05-01 11:35 | 43.66010 | 7.20819 | 24 ft | 10 kts | 171° |
| 2026-05-01 11:35 | 43.65945 | 7.20834 | 22 ft | 9 kts | 171° |
| 2026-05-01 11:35 | 43.65881 | 7.20848 | 24 ft | 9 kts | 171° |
| 2026-05-01 11:35 | 43.65820 | 7.20861 | 22 ft | 9 kts | 170° |
| 2026-05-01 11:36 | 43.65763 | 7.20871 | 22 ft | 8 kts | 184° |
| 2026-05-01 11:36 | 43.65723 | 7.20831 | 23 ft | 7 kts | 225° |
| 2026-05-01 11:36 | 43.65674 | 7.20762 | 22 ft | 11 kts | 225° |
| 2026-05-01 11:36 | 43.65623 | 7.20690 | 22 ft | 10 kts | 225° |
| 2026-05-01 11:37 | 43.65572 | 7.20621 | 22 ft | 14 kts | 224° |
| 2026-05-01 11:37 | 43.65495 | 7.20516 | 22 ft | 15 kts | 225° |
| 2026-05-01 11:37 | 43.65423 | 7.20418 | 22 ft | 14 kts | 224° |
| 2026-05-01 11:37 | 43.65357 | 7.20327 | 22 ft | 13 kts | 225° |
| 2026-05-01 11:38 | 43.65282 | 7.20301 | 23 ft | 11 kts | 162° |
| 2026-05-01 11:38 | 43.65226 | 7.20367 | 22 ft | 12 kts | 134° |
| 2026-05-01 11:38 | 43.65160 | 7.20459 | 22 ft | 14 kts | 135° |
| 2026-05-01 11:38 | 43.65083 | 7.20516 | 22 ft | 13 kts | 173° |
| 2026-05-01 11:39 | 43.64998 | 7.20472 | 22 ft | 13 kts | 223° |
| 2026-05-01 11:39 | 43.64937 | 7.20389 | 22 ft | 12 kts | 225° |
| 2026-05-01 11:39 | 43.64880 | 7.20311 | 22 ft | 11 kts | 225° |
| 2026-05-01 11:39 | 43.64820 | 7.20270 | 22 ft | 9 kts | 176° |
| 2026-05-01 11:40 | 43.64772 | 7.20326 | 22 ft | 10 kts | 119° |
| 2026-05-01 11:40 | 43.64791 | 7.20410 | 22 ft | 6 kts | 45° |
| 2026-05-01 11:40 | 43.64813 | 7.20442 | 22 ft | 8 kts | 45° |
| 2026-05-01 11:40 | 43.65024 | 7.20732 | 22 ft | 82 kts | 44° |
| 2026-05-01 11:41 | 43.65576 | 7.21485 | 27 ft | 141 kts | 45° |
| 2026-05-01 11:41 | 43.66315 | 7.22570 | 411 ft | 162 kts | 51° |
| 2026-05-01 11:41 | 43.67112 | 7.23761 | 1078 ft | 174 kts | 50° |
| 2026-05-01 11:41 | 43.67768 | 7.25202 | 1614 ft | 188 kts | 81° |
| 2026-05-01 11:42 | 43.67477 | 7.26978 | 2150 ft | 202 kts | 127° |
| 2026-05-01 11:42 | 43.66413 | 7.28295 | 2986 ft | 208 kts | 141° |
| 2026-05-01 11:42 | 43.65240 | 7.29516 | 3843 ft | 213 kts | 140° |
| 2026-05-01 11:42 | 43.64085 | 7.30831 | 4684 ft | 217 kts | 130° |
| 2026-05-01 11:43 | 43.63472 | 7.32687 | 5444 ft | 216 kts | 89° |
| 2026-05-01 11:43 | 43.63768 | 7.34716 | 6224 ft | 217 kts | 68° |
| 2026-05-01 11:43 | 43.64278 | 7.36697 | 7011 ft | 221 kts | 67° |
| 2026-05-01 11:44 | 43.65341 | 7.40755 | 8539 ft | 228 kts | 68° |
| 2026-05-01 11:44 | 43.65881 | 7.42823 | 9358 ft | 229 kts | 69° |
| 2026-05-01 11:44 | 43.66426 | 7.44917 | 10101 ft | 236 kts | 69° |
| 2026-05-01 11:44 | 43.66987 | 7.47081 | 10306 ft | 239 kts | 69° |
| 2026-05-01 11:45 | 43.67553 | 7.49272 | 10634 ft | 247 kts | 69° |
| 2026-05-01 11:45 | 43.68158 | 7.51562 | 11023 ft | 269 kts | 68° |
| 2026-05-01 11:45 | 43.68836 | 7.54093 | 11353 ft | 293 kts | 69° |
| 2026-05-01 11:45 | 43.69571 | 7.56834 | 11700 ft | 314 kts | 69° |
| 2026-05-01 11:46 | 43.70341 | 7.59715 | 12394 ft | 322 kts | 69° |
| 2026-05-01 11:46 | 43.71118 | 7.62644 | 13199 ft | 327 kts | 69° |
| 2026-05-01 11:46 | 43.71900 | 7.65602 | 14079 ft | 328 kts | 69° |
| 2026-05-01 11:46 | 43.72686 | 7.68584 | 14778 ft | 333 kts | 69° |
| 2026-05-01 11:47 | 43.73658 | 7.71495 | 15468 ft | 335 kts | 57° |
| 2026-05-01 11:47 | 43.75105 | 7.74035 | 16196 ft | 338 kts | 49° |
| 2026-05-01 11:47 | 43.76669 | 7.76475 | 16886 ft | 341 kts | 49° |
| 2026-05-01 11:47 | 43.78250 | 7.78940 | 17584 ft | 344 kts | 49° |
| 2026-05-01 11:48 | 43.79845 | 7.81430 | 18307 ft | 347 kts | 49° |
| 2026-05-01 11:48 | 43.81450 | 7.83942 | 18964 ft | 350 kts | 49° |
| 2026-05-01 11:48 | 43.83068 | 7.86478 | 19553 ft | 353 kts | 49° |
| 2026-05-01 11:48 | 43.84699 | 7.89040 | 20123 ft | 357 kts | 49° |
| 2026-05-01 11:49 | 43.86347 | 7.91631 | 20689 ft | 360 kts | 49° |
| 2026-05-01 11:49 | 43.88011 | 7.94251 | 21253 ft | 364 kts | 49° |
| 2026-05-01 11:49 | 43.89568 | 7.97033 | 21818 ft | 367 kts | 57° |
| 2026-05-01 11:49 | 43.90845 | 8.00109 | 22439 ft | 368 kts | 59° |
| 2026-05-01 11:50 | 43.92108 | 8.03209 | 23033 ft | 371 kts | 59° |
| 2026-05-01 11:50 | 43.93379 | 8.06332 | 23608 ft | 373 kts | 59° |
| 2026-05-01 11:50 | 43.94662 | 8.09487 | 24086 ft | 377 kts | 59° |
| 2026-05-01 11:50 | 43.95956 | 8.12665 | 24543 ft | 379 kts | 59° |
| 2026-05-01 11:51 | 43.97261 | 8.15864 | 24952 ft | 383 kts | 59° |
| 2026-05-01 11:51 | 43.98582 | 8.19097 | 25375 ft | 386 kts | 58° |
| 2026-05-01 11:51 | 43.99908 | 8.22351 | 25791 ft | 389 kts | 59° |
| 2026-05-01 11:51 | 44.01246 | 8.25647 | 26184 ft | 393 kts | 58° |
| 2026-05-01 11:52 | 44.02571 | 8.28917 | 26607 ft | 395 kts | 59° |
| 2026-05-01 11:52 | 44.03941 | 8.32307 | 26981 ft | 399 kts | 59° |
| 2026-05-01 11:52 | 44.05304 | 8.35679 | 27433 ft | 401 kts | 58° |
| 2026-05-01 11:52 | 44.06656 | 8.39027 | 27820 ft | 404 kts | 58° |
| 2026-05-01 11:53 | 44.08055 | 8.42494 | 28218 ft | 407 kts | 58° |
| 2026-05-01 11:53 | 44.09444 | 8.45941 | 28602 ft | 410 kts | 58° |
| 2026-05-01 11:53 | 44.10846 | 8.49415 | 28969 ft | 413 kts | 58° |
| 2026-05-01 11:53 | 44.12254 | 8.52915 | 29369 ft | 415 kts | 58° |
| 2026-05-01 11:54 | 44.13666 | 8.56438 | 29744 ft | 418 kts | 58° |
| 2026-05-01 11:54 | 44.15084 | 8.59982 | 30120 ft | 421 kts | 59° |
| 2026-05-01 11:54 | 44.16526 | 8.63551 | 30461 ft | 423 kts | 56° |
| 2026-05-01 11:54 | 44.18254 | 8.66785 | 30750 ft | 423 kts | 46° |
| 2026-05-01 11:55 | 44.20415 | 8.69554 | 31039 ft | 422 kts | 35° |
| 2026-05-01 11:55 | 44.22913 | 8.71704 | 31338 ft | 422 kts | 24° |
| 2026-05-01 11:55 | 44.25691 | 8.73178 | 31699 ft | 422 kts | 14° |
| 2026-05-01 11:55 | 44.28537 | 8.73896 | 32017 ft | 422 kts | 6° |
| 2026-05-01 11:56 | 44.31456 | 8.74339 | 32402 ft | 421 kts | 6° |
| 2026-05-01 11:56 | 44.34368 | 8.74790 | 32809 ft | 421 kts | 6° |
| 2026-05-01 11:56 | 44.37273 | 8.75246 | 33214 ft | 420 kts | 6° |
| 2026-05-01 11:56 | 44.40171 | 8.75706 | 33613 ft | 419 kts | 6° |
| 2026-05-01 11:57 | 44.43067 | 8.76166 | 34019 ft | 419 kts | 6° |
| 2026-05-01 11:57 | 44.45959 | 8.76625 | 34410 ft | 418 kts | 6° |
| 2026-05-01 11:57 | 44.48845 | 8.77080 | 34763 ft | 417 kts | 6° |
| 2026-05-01 11:57 | 44.51724 | 8.77536 | 35117 ft | 416 kts | 6° |
| 2026-05-01 11:58 | 44.54595 | 8.77991 | 35455 ft | 415 kts | 5° |
| 2026-05-01 11:58 | 44.57458 | 8.78444 | 35798 ft | 414 kts | 5° |
| 2026-05-01 11:58 | 44.63160 | 8.79348 | 36470 ft | 411 kts | 5° |
| 2026-05-01 11:59 | 44.65999 | 8.79798 | 36798 ft | 410 kts | 5° |
| 2026-05-01 11:59 | 44.68834 | 8.80249 | 37082 ft | 410 kts | 5° |
| 2026-05-01 11:59 | 44.71665 | 8.80699 | 37385 ft | 409 kts | 5° |
| 2026-05-01 12:00 | 44.77309 | 8.81593 | 37983 ft | 407 kts | 5° |
| 2026-05-01 12:00 | 44.80118 | 8.82041 | 38265 ft | 406 kts | 5° |
| 2026-05-01 12:00 | 44.85724 | 8.82939 | 38372 ft | 404 kts | 5° |
| 2026-05-01 12:01 | 44.88485 | 8.83387 | 38368 ft | 405 kts | 5° |
| 2026-05-01 12:01 | 44.94086 | 8.84287 | 38369 ft | 405 kts | 5° |
| 2026-05-01 12:02 | 44.99686 | 8.85185 | 38372 ft | 405 kts | 5° |
| 2026-05-01 12:02 | 45.05284 | 8.86087 | 38407 ft | 405 kts | 5° |
| 2026-05-01 12:03 | 45.10899 | 8.86984 | 38408 ft | 406 kts | 5° |
| 2026-05-01 12:03 | 45.16522 | 8.87895 | 38409 ft | 407 kts | 5° |
| 2026-05-01 12:04 | 45.22147 | 8.88813 | 38391 ft | 407 kts | 5° |
| 2026-05-01 12:04 | 45.27779 | 8.89730 | 38350 ft | 408 kts | 5° |
| 2026-05-01 12:05 | 45.33388 | 8.90639 | 38350 ft | 409 kts | 5° |
| 2026-05-01 12:05 | 45.41874 | 8.92022 | 38358 ft | 409 kts | 5° |
| 2026-05-01 12:06 | 45.47539 | 8.92954 | 38385 ft | 410 kts | 5° |
| 2026-05-01 12:06 | 45.53211 | 8.93884 | 38371 ft | 411 kts | 5° |
| 2026-05-01 12:07 | 45.58889 | 8.94818 | 38374 ft | 411 kts | 5° |
| 2026-05-01 12:07 | 45.64574 | 8.95757 | 38377 ft | 411 kts | 5° |
| 2026-05-01 12:08 | 45.70264 | 8.96690 | 38382 ft | 412 kts | 5° |
| 2026-05-01 12:08 | 45.75962 | 8.97625 | 38388 ft | 412 kts | 5° |
| 2026-05-01 12:09 | 45.81661 | 8.98565 | 38389 ft | 412 kts | 5° |
| 2026-05-01 12:09 | 45.87363 | 8.99507 | 38387 ft | 413 kts | 5° |
| 2026-05-01 12:10 | 45.95878 | 9.00932 | 38386 ft | 413 kts | 6° |
| 2026-05-01 12:11 | 46.04438 | 9.02361 | 38383 ft | 413 kts | 6° |
| 2026-05-01 12:11 | 46.10145 | 9.03312 | 38383 ft | 413 kts | 6° |
| 2026-05-01 12:12 | 46.15860 | 9.04211 | 38387 ft | 413 kts | 1° |
| 2026-05-01 12:12 | 46.21589 | 9.04044 | 38382 ft | 412 kts | 357° |
| 2026-05-01 12:13 | 46.27320 | 9.03791 | 38378 ft | 412 kts | 358° |
| 2026-05-01 12:13 | 46.33053 | 9.03545 | 38371 ft | 412 kts | 358° |
| 2026-05-01 12:14 | 46.38792 | 9.03304 | 38362 ft | 412 kts | 358° |
| 2026-05-01 12:14 | 46.44526 | 9.03059 | 38349 ft | 412 kts | 358° |
| 2026-05-01 12:15 | 46.50230 | 9.02810 | 38343 ft | 413 kts | 357° |
| 2026-05-01 12:15 | 46.55973 | 9.02551 | 38345 ft | 413 kts | 358° |
| 2026-05-01 12:16 | 46.61719 | 9.02302 | 38352 ft | 413 kts | 358° |
| 2026-05-01 12:16 | 46.67467 | 9.02066 | 38339 ft | 413 kts | 358° |
| 2026-05-01 12:17 | 46.73215 | 9.01809 | 38331 ft | 413 kts | 358° |
| 2026-05-01 12:17 | 46.78965 | 9.01543 | 38325 ft | 413 kts | 358° |
| 2026-05-01 12:18 | 46.84736 | 9.01289 | 38315 ft | 419 kts | 358° |
| 2026-05-01 12:18 | 46.90643 | 9.01030 | 38311 ft | 430 kts | 358° |
| 2026-05-01 12:19 | 46.95628 | 9.00815 | 38315 ft | 432 kts | 358° |
| 2026-05-01 12:19 | 47.01639 | 9.00549 | 38314 ft | 433 kts | 358° |
| 2026-05-01 12:20 | 47.07666 | 9.00281 | 38314 ft | 434 kts | 358° |
| 2026-05-01 12:20 | 47.13711 | 9.00018 | 38318 ft | 435 kts | 358° |
| 2026-05-01 12:21 | 47.19768 | 8.99753 | 38322 ft | 435 kts | 358° |
| 2026-05-01 12:21 | 47.25828 | 8.99478 | 38334 ft | 436 kts | 358° |
| 2026-05-01 12:22 | 47.31885 | 8.99196 | 38340 ft | 436 kts | 358° |
| 2026-05-01 12:22 | 47.37945 | 8.98924 | 38338 ft | 436 kts | 358° |
| 2026-05-01 12:23 | 47.44008 | 8.98663 | 38336 ft | 436 kts | 358° |
| 2026-05-01 12:23 | 47.50068 | 8.98393 | 38332 ft | 436 kts | 358° |
| 2026-05-01 12:24 | 47.56130 | 8.98114 | 38331 ft | 436 kts | 358° |
| 2026-05-01 12:24 | 47.62195 | 8.97820 | 38329 ft | 436 kts | 358° |
| 2026-05-01 12:25 | 47.71288 | 8.97418 | 38330 ft | 436 kts | 358° |
| 2026-05-01 12:26 | 47.77235 | 8.97154 | 38324 ft | 436 kts | 358° |
| 2026-05-01 12:26 | 47.86339 | 8.96730 | 38324 ft | 436 kts | 358° |
| 2026-05-01 12:27 | 47.95371 | 8.96328 | 38305 ft | 427 kts | 358° |
| 2026-05-01 12:28 | 48.04130 | 8.95926 | 38306 ft | 417 kts | 358° |
| 2026-05-01 12:29 | 48.12870 | 8.95525 | 38306 ft | 420 kts | 358° |
| 2026-05-01 12:29 | 48.21700 | 8.96068 | 36543 ft | 425 kts | 6° |
| 2026-05-01 12:30 | 48.27599 | 8.96981 | 34368 ft | 424 kts | 6° |
| 2026-05-01 12:30 | 48.30464 | 8.97424 | 33968 ft | 406 kts | 6° |
| 2026-05-01 12:30 | 48.33222 | 8.97847 | 33457 ft | 391 kts | 6° |
| 2026-05-01 12:31 | 48.35885 | 8.98253 | 32986 ft | 380 kts | 6° |
| 2026-05-01 12:31 | 48.38502 | 8.98655 | 32511 ft | 377 kts | 6° |
| 2026-05-01 12:31 | 48.41067 | 8.99048 | 32056 ft | 375 kts | 6° |
| 2026-05-01 12:31 | 48.43650 | 8.99439 | 31598 ft | 372 kts | 6° |
| 2026-05-01 12:32 | 48.46219 | 8.99828 | 31148 ft | 369 kts | 6° |
| 2026-05-01 12:32 | 48.51301 | 9.00601 | 30268 ft | 365 kts | 6° |
| 2026-05-01 12:32 | 48.53814 | 9.00986 | 29825 ft | 361 kts | 6° |
| 2026-05-01 12:33 | 48.56296 | 9.01361 | 29414 ft | 356 kts | 6° |
| 2026-05-01 12:33 | 48.58749 | 9.01733 | 29012 ft | 352 kts | 6° |
| 2026-05-01 12:33 | 48.61170 | 9.02105 | 28618 ft | 348 kts | 7° |
| 2026-05-01 12:33 | 48.63563 | 9.02491 | 28235 ft | 344 kts | 7° |
| 2026-05-01 12:34 | 48.65920 | 9.02979 | 27835 ft | 340 kts | 9° |
| 2026-05-01 12:34 | 48.68253 | 9.03541 | 27442 ft | 338 kts | 10° |
| 2026-05-01 12:34 | 48.70561 | 9.04129 | 27043 ft | 336 kts | 11° |
| 2026-05-01 12:34 | 48.72859 | 9.04715 | 26633 ft | 334 kts | 10° |
| 2026-05-01 12:35 | 48.75140 | 9.05287 | 26225 ft | 332 kts | 10° |
| 2026-05-01 12:35 | 48.77414 | 9.05847 | 25800 ft | 330 kts | 11° |
| 2026-05-01 12:35 | 48.79680 | 9.06395 | 25378 ft | 329 kts | 10° |
| 2026-05-01 12:35 | 48.81936 | 9.06936 | 24945 ft | 328 kts | 10° |
| 2026-05-01 12:36 | 48.84189 | 9.07478 | 24507 ft | 328 kts | 10° |
| 2026-05-01 12:36 | 48.86442 | 9.08015 | 24065 ft | 327 kts | 11° |
| 2026-05-01 12:36 | 48.88662 | 9.08534 | 23590 ft | 327 kts | 9° |
| 2026-05-01 12:36 | 48.90919 | 9.08945 | 23142 ft | 326 kts | 7° |
| 2026-05-01 12:37 | 48.93171 | 9.09265 | 22719 ft | 324 kts | 5° |
| 2026-05-01 12:37 | 48.95415 | 9.09551 | 22294 ft | 323 kts | 7° |
| 2026-05-01 12:37 | 48.97649 | 9.09833 | 21882 ft | 322 kts | 7° |
| 2026-05-01 12:37 | 48.99878 | 9.10123 | 21475 ft | 321 kts | 8° |
| 2026-05-01 12:38 | 49.02102 | 9.10423 | 21069 ft | 325 kts | 6° |
| 2026-05-01 12:38 | 49.04399 | 9.10744 | 20652 ft | 335 kts | 8° |
| 2026-05-01 12:38 | 49.06732 | 9.11071 | 20229 ft | 337 kts | 8° |
| 2026-05-01 12:38 | 49.09066 | 9.11401 | 19818 ft | 337 kts | 8° |
| 2026-05-01 12:39 | 49.11399 | 9.11732 | 19390 ft | 336 kts | 8° |
| 2026-05-01 12:39 | 49.13728 | 9.12064 | 18975 ft | 336 kts | 8° |
| 2026-05-01 12:39 | 49.16056 | 9.12398 | 18559 ft | 336 kts | 8° |
| 2026-05-01 12:39 | 49.18383 | 9.12735 | 18105 ft | 336 kts | 7° |
| 2026-05-01 12:40 | 49.20707 | 9.13069 | 17684 ft | 335 kts | 7° |
| 2026-05-01 12:40 | 49.23021 | 9.13404 | 17265 ft | 334 kts | 7° |
| 2026-05-01 12:40 | 49.25329 | 9.13738 | 16847 ft | 333 kts | 7° |
| 2026-05-01 12:40 | 49.27634 | 9.14073 | 16438 ft | 332 kts | 8° |
| 2026-05-01 12:41 | 49.29896 | 9.14705 | 16007 ft | 330 kts | 15° |
| 2026-05-01 12:41 | 49.32112 | 9.15489 | 15552 ft | 331 kts | 15° |
| 2026-05-01 12:41 | 49.34357 | 9.16286 | 15100 ft | 332 kts | 16° |
| 2026-05-01 12:41 | 49.36610 | 9.17086 | 14643 ft | 332 kts | 15° |
| 2026-05-01 12:42 | 49.38868 | 9.17889 | 14185 ft | 333 kts | 15° |
| 2026-05-01 12:42 | 49.41122 | 9.18690 | 13717 ft | 332 kts | 16° |
| 2026-05-01 12:42 | 49.43367 | 9.19484 | 13315 ft | 329 kts | 16° |
| 2026-05-01 12:42 | 49.45605 | 9.20277 | 12851 ft | 329 kts | 15° |
| 2026-05-01 12:43 | 49.47828 | 9.21069 | 12383 ft | 329 kts | 15° |
| 2026-05-01 12:43 | 49.50047 | 9.21857 | 12023 ft | 326 kts | 15° |
| 2026-05-01 12:43 | 49.52257 | 9.22642 | 11622 ft | 324 kts | 15° |
| 2026-05-01 12:43 | 49.54448 | 9.23420 | 11264 ft | 321 kts | 16° |
| 2026-05-01 12:44 | 49.56596 | 9.24183 | 11115 ft | 312 kts | 16° |
| 2026-05-01 12:44 | 49.58681 | 9.24925 | 10988 ft | 304 kts | 16° |
| 2026-05-01 12:44 | 49.62768 | 9.26385 | 10758 ft | 301 kts | 16° |
| 2026-05-01 12:45 | 49.66836 | 9.27856 | 10521 ft | 300 kts | 16° |
| 2026-05-01 12:45 | 49.68870 | 9.28591 | 10408 ft | 300 kts | 16° |
| 2026-05-01 12:45 | 49.70903 | 9.29323 | 10308 ft | 301 kts | 14° |
| 2026-05-01 12:46 | 49.72935 | 9.30053 | 10238 ft | 299 kts | 15° |
| 2026-05-01 12:46 | 49.74958 | 9.30781 | 10159 ft | 299 kts | 16° |
| 2026-05-01 12:46 | 49.76985 | 9.31514 | 10078 ft | 299 kts | 17° |
| 2026-05-01 12:46 | 49.79009 | 9.32245 | 9998 ft | 298 kts | 15° |
| 2026-05-01 12:47 | 49.81028 | 9.32972 | 9921 ft | 298 kts | 16° |
| 2026-05-01 12:47 | 49.83081 | 9.33462 | 9853 ft | 301 kts | 359° |
| 2026-05-01 12:47 | 49.85107 | 9.32684 | 9782 ft | 303 kts | 333° |
| 2026-05-01 12:47 | 49.86697 | 9.30656 | 9705 ft | 302 kts | 306° |
| 2026-05-01 12:48 | 49.87604 | 9.27757 | 9627 ft | 300 kts | 285° |
| 2026-05-01 12:48 | 49.88202 | 9.24661 | 9544 ft | 300 kts | 285° |
| 2026-05-01 12:48 | 49.88790 | 9.21555 | 9476 ft | 301 kts | 284° |
| 2026-05-01 12:48 | 49.89380 | 9.18435 | 9403 ft | 302 kts | 284° |
| 2026-05-01 12:49 | 49.89970 | 9.15319 | 9322 ft | 301 kts | 284° |
| 2026-05-01 12:49 | 49.90557 | 9.12210 | 9249 ft | 300 kts | 284° |
| 2026-05-01 12:49 | 49.91146 | 9.09110 | 9169 ft | 300 kts | 284° |
| 2026-05-01 12:49 | 49.91738 | 9.06006 | 9099 ft | 300 kts | 284° |
| 2026-05-01 12:50 | 49.92328 | 9.02907 | 9027 ft | 299 kts | 284° |
| 2026-05-01 12:50 | 49.92917 | 8.99819 | 8954 ft | 298 kts | 284° |
| 2026-05-01 12:50 | 49.93506 | 8.96744 | 8885 ft | 297 kts | 284° |
| 2026-05-01 12:50 | 49.94091 | 8.93675 | 8817 ft | 297 kts | 284° |
| 2026-05-01 12:51 | 49.94674 | 8.90602 | 8746 ft | 297 kts | 284° |
| 2026-05-01 12:51 | 49.95255 | 8.87532 | 8675 ft | 296 kts | 284° |
| 2026-05-01 12:51 | 49.96410 | 8.81416 | 8538 ft | 295 kts | 284° |
| 2026-05-01 12:52 | 49.96989 | 8.78358 | 8465 ft | 294 kts | 284° |
| 2026-05-01 12:52 | 49.97823 | 8.72230 | 8327 ft | 290 kts | 266° |
| 2026-05-01 12:52 | 49.97584 | 8.69145 | 8260 ft | 286 kts | 252° |
| 2026-05-01 12:53 | 49.96245 | 8.63353 | 8123 ft | 285 kts | 246° |
| 2026-05-01 12:53 | 49.95554 | 8.60475 | 8051 ft | 284 kts | 246° |
| 2026-05-01 12:53 | 49.94863 | 8.57603 | 8000 ft | 284 kts | 246° |
| 2026-05-01 12:54 | 49.94173 | 8.54743 | 7918 ft | 284 kts | 246° |
| 2026-05-01 12:54 | 49.92788 | 8.49005 | 7782 ft | 284 kts | 246° |
| 2026-05-01 12:54 | 49.92096 | 8.46140 | 7678 ft | 283 kts | 246° |
| 2026-05-01 12:55 | 49.90723 | 8.40461 | 7547 ft | 282 kts | 246° |
| 2026-05-01 12:55 | 49.90022 | 8.37574 | 7476 ft | 282 kts | 246° |
| 2026-05-01 12:55 | 49.89343 | 8.34769 | 7405 ft | 282 kts | 246° |
| 2026-05-01 12:56 | 49.88656 | 8.31931 | 7234 ft | 280 kts | 246° |
| 2026-05-01 12:56 | 49.87970 | 8.29105 | 7060 ft | 279 kts | 246° |
| 2026-05-01 12:56 | 49.87287 | 8.26299 | 6907 ft | 278 kts | 246° |
| 2026-05-01 12:56 | 49.86604 | 8.23496 | 6759 ft | 277 kts | 246° |
| 2026-05-01 12:57 | 49.85923 | 8.20703 | 6611 ft | 277 kts | 246° |
| 2026-05-01 12:57 | 49.84571 | 8.15140 | 6276 ft | 276 kts | 246° |
| 2026-05-01 12:57 | 49.84016 | 8.12297 | 6087 ft | 278 kts | 261° |
| 2026-05-01 12:58 | 49.84248 | 8.09317 | 5913 ft | 284 kts | 289° |
| 2026-05-01 12:58 | 49.85343 | 8.06772 | 5737 ft | 287 kts | 317° |
| 2026-05-01 12:58 | 49.87062 | 8.05249 | 5558 ft | 287 kts | 345° |
| 2026-05-01 12:59 | 49.90922 | 8.05740 | 5218 ft | 279 kts | 27° |
| 2026-05-01 12:59 | 49.92546 | 8.07295 | 5032 ft | 270 kts | 45° |
| 2026-05-01 12:59 | 49.94502 | 8.11672 | 4971 ft | 234 kts | 74° |
| 2026-05-01 13:00 | 49.95591 | 8.16139 | 4960 ft | 210 kts | 75° |
| 2026-05-01 13:00 | 49.96101 | 8.18232 | 4768 ft | 205 kts | 75° |
| 2026-05-01 13:01 | 49.97080 | 8.22259 | 4230 ft | 194 kts | 74° |
| 2026-05-01 13:01 | 49.97551 | 8.24198 | 3943 ft | 188 kts | 73° |
| 2026-05-01 13:01 | 49.98443 | 8.27879 | 3435 ft | 177 kts | 73° |
| 2026-05-01 13:02 | 49.98872 | 8.29651 | 3182 ft | 174 kts | 72° |
| 2026-05-01 13:07 | 50.04210 | 8.52723 | 346 ft | 15 kts | 69° |
| 2026-05-01 13:07 | 50.04251 | 8.52885 | 351 ft | 17 kts | 69° |
| 2026-05-01 13:07 | 50.04295 | 8.53071 | 348 ft | 21 kts | 69° |
| 2026-05-01 13:08 | 50.04345 | 8.53281 | 353 ft | 21 kts | 70° |
| 2026-05-01 13:08 | 50.04386 | 8.53445 | 355 ft | 14 kts | 70° |
| 2026-05-01 13:08 | 50.04402 | 8.53593 | 348 ft | 13 kts | 83° |
| 2026-05-01 13:08 | 50.04412 | 8.53741 | 353 ft | 14 kts | 84° |
| 2026-05-01 13:09 | 50.04423 | 8.53905 | 346 ft | 16 kts | 84° |
| 2026-05-01 13:09 | 50.04434 | 8.54091 | 348 ft | 18 kts | 84° |
| 2026-05-01 13:09 | 50.04446 | 8.54292 | 346 ft | 18 kts | 85° |
| 2026-05-01 13:09 | 50.04451 | 8.54461 | 346 ft | 15 kts | 97° |
| 2026-05-01 13:10 | 50.04416 | 8.54626 | 347 ft | 17 kts | 124° |
| 2026-05-01 13:10 | 50.04326 | 8.54758 | 349 ft | 18 kts | 151° |
| 2026-05-01 13:10 | 50.04220 | 8.54825 | 352 ft | 15 kts | 161° |
| 2026-05-01 13:10 | 50.04114 | 8.54885 | 350 ft | 18 kts | 160° |
| 2026-05-01 13:11 | 50.04006 | 8.54948 | 352 ft | 15 kts | 159° |
| 2026-05-01 13:11 | 50.03909 | 8.55005 | 350 ft | 14 kts | 159° |
| 2026-05-01 13:11 | 50.03873 | 8.55028 | 355 ft | 0 kts | 153° |
| 2026-05-01 13:12 | 50.03853 | 8.55029 | 349 ft | 13 kts | 185° |
| 2026-05-01 13:12 | 50.03801 | 8.54913 | 351 ft | 13 kts | 249° |
| 2026-05-01 13:13 | 50.03780 | 8.54823 | 349 ft | 13 kts | 250° |
| 2026-05-01 13:13 | 50.03750 | 8.54698 | 353 ft | 12 kts | 250° |
| 2026-05-01 13:13 | 50.03721 | 8.54577 | 352 ft | 12 kts | 249° |
| 2026-05-01 13:13 | 50.03695 | 8.54454 | 346 ft | 11 kts | 262° |
| 2026-05-01 13:14 | 50.03736 | 8.54374 | 352 ft | 10 kts | 339° |
| 2026-05-01 13:14 | 50.03812 | 8.54333 | 351 ft | 12 kts | 349° |
| 2026-05-01 13:14 | 50.03871 | 8.54401 | 353 ft | 12 kts | 67° |
| 2026-05-01 13:14 | 50.03910 | 8.54564 | 353 ft | 18 kts | 70° |
| 2026-05-01 13:15 | 50.03955 | 8.54752 | 353 ft | 19 kts | 69° |
| 2026-05-01 13:15 | 50.04004 | 8.54956 | 351 ft | 21 kts | 70° |
| 2026-05-01 13:15 | 50.04055 | 8.55172 | 353 ft | 22 kts | 69° |
| 2026-05-01 13:15 | 50.04108 | 8.55392 | 349 ft | 21 kts | 70° |
| 2026-05-01 13:16 | 50.04154 | 8.55586 | 350 ft | 20 kts | 70° |
| 2026-05-01 13:16 | 50.04203 | 8.55792 | 351 ft | 21 kts | 69° |
| 2026-05-01 13:16 | 50.04249 | 8.55979 | 351 ft | 18 kts | 69° |
| 2026-05-01 13:17 | 50.04383 | 8.56539 | 352 ft | 17 kts | 69° |
| 2026-05-01 13:17 | 50.04416 | 8.56681 | 349 ft | 12 kts | 70° |
| 2026-05-01 13:18 | 50.04503 | 8.56874 | 351 ft | 10 kts | 15° |
| 2026-05-01 13:18 | 50.04563 | 8.56894 | 346 ft | 7 kts | 7° |
| 2026-05-01 13:18 | 50.04585 | 8.56851 | 346 ft | 5 kts | 295° |
| 2026-05-01 13:18 | 50.04597 | 8.56809 | 348 ft | 4 kts | 294° |
| 2026-05-01 13:19 | 50.04604 | 8.56786 | 352 ft | 0 kts | 294° |
| 2026-05-01 13:19 | 50.04605 | 8.56781 | 351 ft | 0 kts | 294° |
| 2026-05-01 13:19 | 50.04606 | 8.56779 | 351 ft | 0 kts | 294° |